• Join FlightAware (Why Join?)
  • Login
  • US Flag 
03:41AM EDT


 

Airport Tracker/Info


-or-


 

Live Flight TrackerFlight Track Log ✈ N638SF ✈ 10-May-2013 ✈ KJAX - KLUL

Flight Track Log - Related Links

Times and Time Zones

All times are in EDT time to prevent confusion due to time zone crossing. See the N638SF flight status page for this flight to view local times or setup timezone preferences in your user account.

Time Position Orientation Groundspeed Altitude Reporting Facility
EDT Latitude Longitude Course Direction KTS MPH feet Rate Location/Type
04:39PM 30.4736 -81.6778 158° South 188 216 700  Level Jacksonville Center
04:40PM 30.4633 -81.6731 158° South 201 231 1,500 3,720 Climbing Jacksonville Center
04:41PM 30.4303 -81.7144 227° Southwest 226 260 5,400 3,840 Climbing Jacksonville Center
04:42PM 30.4267 -81.7942 267° West 251 289 9,200 3,300 Climbing Jacksonville Center
04:43PM 30.4169 -81.8881 263° West 307 353 12,100 3,000 Climbing Jacksonville Center
04:44PM 30.4367 -81.9914 283° West 320 368 15,200 2,880 Climbing Jacksonville Center
04:45PM 30.4581 -82.0781 286° West 320 368 17,900 2,820 Climbing Jacksonville Center
04:46PM 30.4797 -82.1839 283° West 325 374 20,900 2,460 Climbing Jacksonville Center
04:47PM 30.4989 -82.2850 282° West 325 374 22,900 1,680 Climbing Jacksonville Center
04:48PM 30.5244 -82.4222 282° West 367 422 24,300 1,920 Climbing Jacksonville Center
04:49PM 30.5478 -82.5403 283° West 381 438 26,800 2,400 Climbing Jacksonville Center
04:50PM 30.5711 -82.6561 283° West 381 438 29,100 1,560 Climbing Jacksonville Center
04:51PM 30.5942 -82.7767 283° West 375 432 30,000 420 Climbing Jacksonville Center
04:52PM 30.6194 -82.9094 283° West 395 455 30,000  Level Jacksonville Center
04:53PM 30.6444 -83.0328 283° West 416 479 30,000  Level Jacksonville Center
04:54PM 30.6461 -83.1750 271° West 438 504 30,000  Level Jacksonville Center
04:55PM 30.6458 -83.3175 270° West 444 511 30,000  Level Jacksonville Center
04:56PM 30.6514 -83.4600 273° West 444 511 30,000  Level Jacksonville Center
04:57PM 30.6819 -83.6125 283° West 444 511 30,000  Level Jacksonville Center
04:58PM 30.7125 -83.7528 284° West 450 518 30,000  Level Jacksonville Center
04:59PM 30.7386 -83.8883 283° West 445 512 30,000  Level Jacksonville Center
05:00PM 30.7667 -84.0264 283° West 445 512 30,000  Level Jacksonville Center
05:01PM 30.7947 -84.1647 283° West 445 512 30,000  Level Jacksonville Center
05:02PM 30.8203 -84.2981 283° West 440 506 30,000  Level Jacksonville Center
05:03PM 30.8458 -84.4364 282° West 440 506 30,000  Level Jacksonville Center
05:04PM 30.8714 -84.5747 282° West 433 498 30,000  Level Jacksonville Center
05:05PM 30.8986 -84.7083 283° West 433 498 30,000  Level Jacksonville Center
05:06PM 30.9242 -84.8300 284° West 428 493 30,000  Level Jacksonville Center
05:07PM 30.9492 -84.9661 282° West 433 498 30,000  Level Jacksonville Center
05:08PM 30.9739 -85.1000 282° West 433 498 30,000  Level Jacksonville Center
05:09PM 30.9986 -85.2339 282° West 433 498 30,000  Level Jacksonville Center
05:10PM 31.0253 -85.3725 283° West 433 498 30,000  Level Jacksonville Center
05:11PM 31.0497 -85.5067 282° West 433 498 30,000  Level Jacksonville Center
05:12PM 31.0739 -85.6431 282° West 433 498 30,000  Level Jacksonville Center
05:13PM 31.1000 -85.7894 282° West 433 498 30,000 -360 Level Jacksonville Center
05:14PM 31.1239 -85.9283 281° West 433 498 29,300 -900 Descending Jacksonville Center
05:15PM 31.1497 -86.0678 282° West 433 498 28,300 -660 Descending Jacksonville Center
05:16PM 31.1753 -86.2094 282° West 433 498 28,000 -180 Descending Jacksonville Center
05:17PM 31.2008 -86.3486 282° West 438 504 28,000  Level Jacksonville Center
05:18PM 31.2264 -86.4833 283° West 438 504 28,000  Level Jacksonville Center
05:19PM 31.2497 -86.6178 282° West 431 496 28,000  Level Jacksonville Center
05:20PM 31.2728 -86.7547 281° West 431 496 28,000  Level Jacksonville Center
05:22PM 31.3408 -87.1217 282° West 433 498 28,000  Level Atlanta Center
05:24PM 31.3756 -87.3342 281° West 429 494 28,000 -180 Level Houston Center
05:24PM 31.3914 -87.4225 282° West 431 496 27,700 -1,020 Descending Atlanta Center
05:25PM 31.4167 -87.5622 282° West 431 496 26,500 -1,320 Descending Atlanta Center
05:26PM 31.4400 -87.6992 281° West 431 496 25,100 -1,260 Descending Atlanta Center
05:27PM 31.4608 -87.8342 280° West 431 496 24,000 -1,500 Descending Atlanta Center
05:29PM 31.4936 -88.0358 281° West 416 479 21,300 -1,860 Descending Memphis Center
05:30PM 31.5147 -88.1572 282° West 403 464 19,300 -2,040 Descending Memphis Center
05:31PM 31.5311 -88.2694 280° West 374 430 17,000 -1,560 Descending Houston Center
05:32PM 31.5550 -88.4161 281° West 385 443 16,000 -1,080 Descending Houston Center
05:33PM 31.5919 -88.5292 291° West 375 432 14,800 -1,740 Descending Houston Center
05:34PM 31.6347 -88.6250 298° West 381 438 12,800 -2,460 Descending Memphis Center
05:35PM 31.6819 -88.7169 301° West 363 418 10,400 -2,400 Descending Memphis Center
05:36PM 31.7183 -88.7919 300° West 324 373 8,100 -2,340 Descending Memphis Center
05:39PM 31.6967 -88.9749 281° West  Level Estimated
05:46PM 31.6667 -89.1667 283° West  Level FlightAware Approximate
05:47PM 31.6730 -89.1728 283° West  Level Estimated
05:48PM 31.6730 -89.1728 283° West  Level Estimated
05:49PM 31.6730 -89.1728 283° West  Level Estimated
05:50PM 31.6730 -89.1728 283° West  Level Estimated
05:51PM 31.6730 -89.1728 283° West  Level Estimated
05:52PM 31.6730 -89.1728 283° West  Level Estimated
05:53PM 31.6730 -89.1728 283° West  Level Estimated